createdAt,value
2023-03-29T00:00:11.528Z,9.54
2023-03-29T00:02:43.438Z,9.55
2023-03-29T00:05:12.405Z,9.58
2023-03-29T00:07:39.955Z,9.59
2023-03-29T00:10:10.077Z,9.62
2023-03-29T00:12:41.995Z,9.62
2023-03-29T00:15:09.968Z,9.65
2023-03-29T00:17:37.779Z,9.66
2023-03-29T00:20:10.358Z,9.70
2023-03-29T00:22:39.944Z,9.72
2023-03-29T00:25:08.458Z,9.74
2023-03-29T00:27:36.076Z,9.75
2023-03-29T00:30:05.743Z,9.78
2023-03-29T00:32:34.073Z,9.78
2023-03-29T00:35:02.768Z,9.78
2023-03-29T00:37:30.835Z,9.77
2023-03-29T00:39:58.973Z,9.74
2023-03-29T00:42:26.944Z,9.74
2023-03-29T00:45:09.805Z,9.71
2023-03-29T00:47:37.622Z,9.70
2023-03-29T00:50:15.870Z,9.67
2023-03-29T00:52:48.737Z,9.66
2023-03-29T00:55:21.896Z,9.64
2023-03-29T00:57:52.326Z,9.63
2023-03-29T01:00:24.403Z,9.62
2023-03-29T01:02:55.542Z,9.58
2023-03-29T01:05:32.233Z,9.50
2023-03-29T01:08:09.044Z,9.43
2023-03-29T01:10:41.551Z,9.40
2023-03-29T01:13:14.704Z,9.39
2023-03-29T01:15:45.990Z,9.35
2023-03-29T01:18:14.221Z,9.30
2023-03-29T01:21:10.209Z,9.23
2023-03-29T01:23:40.940Z,9.15
2023-03-29T01:26:14.439Z,9.10
2023-03-29T01:28:57.215Z,9.05
2023-03-29T01:31:29.555Z,9.03
2023-03-29T01:34:10.845Z,9.02
2023-03-29T01:36:49.684Z,9.02
2023-03-29T01:39:19.093Z,8.98
2023-03-29T01:41:52.795Z,8.94
2023-03-29T01:44:31.670Z,8.94
2023-03-29T01:47:25.434Z,8.91
2023-03-29T01:50:05.649Z,8.92
2023-03-29T01:52:42.947Z,8.95
2023-03-29T01:55:18.582Z,8.95
2023-03-29T01:57:48.630Z,8.95
2023-03-29T02:00:24.902Z,8.95
2023-03-29T02:02:55.611Z,8.96
2023-03-29T02:05:24.576Z,8.98
2023-03-29T02:07:53.352Z,9.02
2023-03-29T02:10:23.325Z,9.05
2023-03-29T02:12:50.873Z,9.09
2023-03-29T02:15:20.662Z,9.12
2023-03-29T02:17:51.123Z,9.12
2023-03-29T02:20:23.754Z,9.13
2023-03-29T02:23:14.529Z,9.15
2023-03-29T02:25:43.663Z,9.16
2023-03-29T02:28:11.885Z,9.15
2023-03-29T02:30:57.975Z,9.16
2023-03-29T02:33:36.798Z,9.18
2023-03-29T02:36:14.799Z,9.17
2023-03-29T02:38:42.522Z,9.16
2023-03-29T02:41:11.099Z,9.17
2023-03-29T02:43:41.834Z,9.15
2023-03-29T02:46:11.427Z,9.16
2023-03-29T02:48:41.407Z,9.13
2023-03-29T02:51:19.784Z,9.11
2023-03-29T02:54:06.462Z,9.07
2023-03-29T02:56:48.408Z,9.09
2023-03-29T02:59:19.590Z,9.12
2023-03-29T03:01:47.467Z,9.13
2023-03-29T03:04:15.935Z,9.18
2023-03-29T03:06:44.762Z,9.20
2023-03-29T03:09:12.796Z,9.24
2023-03-29T03:11:43.223Z,9.25
2023-03-29T03:14:10.993Z,9.29
2023-03-29T03:16:38.886Z,9.30
2023-03-29T03:19:07.056Z,9.28
2023-03-29T03:21:35.357Z,9.28
2023-03-29T03:24:02.989Z,9.29
2023-03-29T03:26:30.756Z,9.28
2023-03-29T03:28:58.386Z,9.27
2023-03-29T03:31:44.810Z,9.28
2023-03-29T03:34:31.016Z,9.27
2023-03-29T03:37:01.989Z,9.27
2023-03-29T03:39:32.823Z,9.25
2023-03-29T03:42:02.312Z,9.26
2023-03-29T03:44:30.600Z,9.28
2023-03-29T03:47:15.212Z,9.30
2023-03-29T03:49:43.537Z,9.32
2023-03-29T03:52:11.908Z,9.31
2023-03-29T03:54:40.498Z,9.27
2023-03-29T03:57:26.585Z,9.24
2023-03-29T03:59:54.618Z,9.21
2023-03-29T04:02:28.313Z,9.19
2023-03-29T04:04:56.182Z,9.19
2023-03-29T04:07:30.864Z,9.19
2023-03-29T04:10:06.240Z,9.22
2023-03-29T04:13:06.276Z,9.24
2023-03-29T04:15:39.164Z,9.26
2023-03-29T04:18:10.352Z,9.26
2023-03-29T04:20:43.904Z,9.30
2023-03-29T04:23:12.496Z,9.30
2023-03-29T04:25:41.542Z,9.31
2023-03-29T04:28:31.915Z,9.32
2023-03-29T04:31:17.130Z,9.34
2023-03-29T04:33:54.144Z,9.38
2023-03-29T04:36:21.856Z,9.39
2023-03-29T04:38:52.346Z,9.40
2023-03-29T04:41:28.753Z,9.40
2023-03-29T04:43:59.892Z,9.38
2023-03-29T04:46:32.501Z,9.38
2023-03-29T04:49:12.689Z,9.41
2023-03-29T04:51:43.818Z,9.45
2023-03-29T04:54:12.123Z,9.51
2023-03-29T04:57:08.301Z,9.58
2023-03-29T04:59:46.483Z,9.65
2023-03-29T05:02:34.424Z,9.70
2023-03-29T05:05:03.096Z,9.74
2023-03-29T05:07:31.380Z,9.77
2023-03-29T05:09:59.672Z,9.81
2023-03-29T05:12:27.693Z,9.82
2023-03-29T05:14:57.883Z,9.84
2023-03-29T05:17:27.645Z,9.88
2023-03-29T05:20:01.413Z,9.93
2023-03-29T05:22:29.843Z,9.96
2023-03-29T05:24:57.634Z,9.98
2023-03-29T05:27:25.551Z,10.02
2023-03-29T05:30:01.938Z,10.04
2023-03-29T05:32:37.415Z,10.05
2023-03-29T05:35:06.883Z,10.09
2023-03-29T05:37:35.760Z,10.12
2023-03-29T05:40:07.142Z,10.15
2023-03-29T05:42:44.393Z,10.16
2023-03-29T05:45:12.259Z,10.16
2023-03-29T05:47:41.730Z,10.18
2023-03-29T05:50:10.399Z,10.21
2023-03-29T05:52:38.910Z,10.21
2023-03-29T05:55:07.538Z,10.21
2023-03-29T05:57:38.570Z,10.22
2023-03-29T06:00:25.886Z,10.23
2023-03-29T06:03:17.717Z,10.26
2023-03-29T06:05:50.009Z,10.27
2023-03-29T06:08:18.241Z,10.29
2023-03-29T06:10:45.713Z,10.31
2023-03-29T06:13:28.709Z,10.32
2023-03-29T06:15:56.633Z,10.35
2023-03-29T06:18:26.260Z,10.35
2023-03-29T06:20:54.063Z,10.37
2023-03-29T06:23:22.435Z,10.40
2023-03-29T06:25:53.404Z,10.42
2023-03-29T06:28:21.659Z,10.46
2023-03-29T06:30:50.245Z,10.47
2023-03-29T06:33:18.863Z,10.51
2023-03-29T06:35:54.796Z,10.50
2023-03-29T06:38:29.374Z,10.53
2023-03-29T06:41:05.280Z,10.55
2023-03-29T06:43:50.593Z,10.55
2023-03-29T06:46:19.116Z,10.58
2023-03-29T06:49:01.899Z,10.63
2023-03-29T06:51:48.857Z,10.64
2023-03-29T06:54:17.356Z,10.66
2023-03-29T06:56:57.919Z,10.69
2023-03-29T06:59:26.729Z,10.74
2023-03-29T07:01:58.664Z,10.78
2023-03-29T07:04:41.982Z,10.84
2023-03-29T07:07:43.984Z,10.86
2023-03-29T07:10:37.674Z,10.87
2023-03-29T07:13:23.752Z,10.91
2023-03-29T07:15:53.467Z,10.92
2023-03-29T07:18:25.971Z,10.97
2023-03-29T07:20:53.608Z,10.98
2023-03-29T07:23:21.476Z,11.02
2023-03-29T07:25:51.341Z,11.04
2023-03-29T07:28:20.172Z,11.06
2023-03-29T07:30:47.782Z,11.10
2023-03-29T07:33:21.693Z,11.10
2023-03-29T07:35:52.440Z,11.08
2023-03-29T07:38:20.709Z,11.13
2023-03-29T07:40:54.597Z,11.20
2023-03-29T07:43:34.806Z,11.26
2023-03-29T07:46:05.132Z,11.29
2023-03-29T07:48:37.229Z,11.31
2023-03-29T07:51:10.099Z,11.33
2023-03-29T07:53:49.849Z,11.36
2023-03-29T07:56:32.788Z,11.43
2023-03-29T07:59:12.929Z,11.50
2023-03-29T08:01:42.753Z,11.55
2023-03-29T08:04:30.026Z,11.58
2023-03-29T08:07:20.064Z,11.62
2023-03-29T08:10:10.636Z,11.59
2023-03-29T08:13:04.813Z,11.57
2023-03-29T08:15:52.702Z,11.55
2023-03-29T08:18:28.027Z,11.56
2023-03-29T08:20:55.818Z,11.57
2023-03-29T08:23:23.822Z,11.56
2023-03-29T08:25:54.179Z,11.57
2023-03-29T08:28:22.418Z,11.59
2023-03-29T08:30:52.878Z,11.60
2023-03-29T08:33:20.828Z,11.61
2023-03-29T08:35:57.349Z,11.62
2023-03-29T08:38:31.418Z,11.66
2023-03-29T08:40:59.189Z,11.70
2023-03-29T08:43:55.575Z,11.70
2023-03-29T08:46:55.305Z,11.75
2023-03-29T08:49:29.344Z,11.76
2023-03-29T08:52:02.671Z,11.81
2023-03-29T08:54:44.381Z,11.82
2023-03-29T08:57:41.758Z,11.86
2023-03-29T09:00:36.997Z,11.87
2023-03-29T09:03:23.662Z,11.92
2023-03-29T09:06:00.288Z,11.97
2023-03-29T09:08:28.675Z,11.99
2023-03-29T09:11:09.250Z,12.03
2023-03-29T09:13:41.751Z,12.05
2023-03-29T09:16:18.637Z,12.09
2023-03-29T09:19:31.448Z,12.15
2023-03-29T09:22:05.518Z,12.22
2023-03-29T09:24:55.193Z,12.26
2023-03-29T09:27:34.909Z,12.29
2023-03-29T09:30:41.666Z,12.31
2023-03-29T09:33:31.655Z,12.31
2023-03-29T09:36:31.948Z,12.33
2023-03-29T09:39:00.725Z,12.34
2023-03-29T09:41:41.715Z,12.35
2023-03-29T09:44:28.221Z,12.36
2023-03-29T09:47:09.218Z,12.38
2023-03-29T09:49:43.648Z,12.39
2023-03-29T09:52:15.196Z,12.40
2023-03-29T09:54:48.711Z,12.42
2023-03-29T09:57:39.309Z,12.42
2023-03-29T10:00:10.708Z,12.43
2023-03-29T10:02:54.792Z,12.43
2023-03-29T10:05:33.122Z,12.47
2023-03-29T10:08:02.726Z,12.51
2023-03-29T10:10:33.644Z,12.57
2023-03-29T10:13:05.652Z,12.66
2023-03-29T10:15:33.231Z,12.73
2023-03-29T10:18:03.764Z,12.76
2023-03-29T10:20:34.892Z,12.77
2023-03-29T10:23:02.583Z,12.81
2023-03-29T10:25:33.159Z,12.83
2023-03-29T10:28:12.148Z,12.86
2023-03-29T10:30:40.328Z,12.92
2023-03-29T10:33:17.728Z,13.01
2023-03-29T10:35:47.430Z,13.10
2023-03-29T10:38:18.872Z,13.14
2023-03-29T10:40:49.685Z,13.11
2023-03-29T10:43:17.509Z,13.11
2023-03-29T10:45:49.158Z,13.08
2023-03-29T10:48:17.881Z,13.08
2023-03-29T10:50:53.092Z,13.03
2023-03-29T10:53:29.548Z,13.03
2023-03-29T10:56:03.407Z,13.07
2023-03-29T10:58:46.240Z,13.14
2023-03-29T11:01:25.103Z,13.19
2023-03-29T11:03:59.023Z,13.21
2023-03-29T11:07:07.209Z,13.18
2023-03-29T11:09:41.158Z,13.24
2023-03-29T11:12:18.151Z,13.39
2023-03-29T11:14:53.343Z,13.46
2023-03-29T11:17:34.943Z,13.53
2023-03-29T11:20:33.362Z,13.59
2023-03-29T11:23:32.354Z,13.82
2023-03-29T11:26:17.433Z,13.99
2023-03-29T11:28:57.323Z,14.11
2023-03-29T11:31:41.524Z,14.10
2023-03-29T11:34:35.176Z,14.14
2023-03-29T11:37:14.567Z,14.14
2023-03-29T11:40:20.021Z,14.19
2023-03-29T11:42:52.614Z,14.22
2023-03-29T11:45:32.673Z,14.19
2023-03-29T11:48:02.838Z,14.22
2023-03-29T11:50:40.122Z,14.19
2023-03-29T11:53:20.267Z,14.11
2023-03-29T11:55:51.502Z,14.21
2023-03-29T11:58:27.672Z,14.46
2023-03-29T12:01:01.894Z,14.61
2023-03-29T12:03:56.002Z,14.60
2023-03-29T12:06:39.898Z,14.66
2023-03-29T12:09:38.732Z,14.63
2023-03-29T12:12:14.104Z,14.53
2023-03-29T12:15:07.367Z,14.48
2023-03-29T12:17:44.309Z,14.48
2023-03-29T12:20:21.729Z,14.51
2023-03-29T12:22:51.911Z,14.55
2023-03-29T12:25:44.213Z,14.51
2023-03-29T12:31:22.102Z,14.49
2023-03-29T12:34:05.316Z,14.46
2023-03-29T12:37:36.085Z,14.51
2023-03-29T12:40:28.668Z,14.52
2023-03-29T12:43:43.702Z,14.49
2023-03-29T12:46:58.336Z,14.38
2023-03-29T12:53:38.161Z,14.33
2023-03-29T12:56:08.893Z,14.39
2023-03-29T12:58:40.226Z,14.43
2023-03-29T13:01:48.253Z,14.49
2023-03-29T13:04:54.316Z,14.47
2023-03-29T13:07:28.021Z,14.36
2023-03-29T13:09:58.880Z,14.22
2023-03-29T13:12:37.714Z,14.13
2023-03-29T13:15:27.396Z,13.95
2023-03-29T13:18:26.590Z,13.86
2023-03-29T13:21:10.906Z,13.80
2023-03-29T13:23:55.826Z,13.71
2023-03-29T13:26:29.466Z,13.54
2023-03-29T13:29:35.384Z,13.43
2023-03-29T13:32:28.490Z,13.37
2023-03-29T13:35:18.698Z,13.17
2023-03-29T13:38:13.302Z,12.97
2023-03-29T13:40:42.235Z,12.78
2023-03-29T13:43:22.501Z,12.66
2023-03-29T13:45:59.343Z,12.57
2023-03-29T13:48:50.288Z,12.46
2023-03-29T13:51:17.988Z,12.39
2023-03-29T13:54:01.354Z,12.31
2023-03-29T13:56:55.103Z,12.26
2023-03-29T13:59:32.307Z,12.21
2023-03-29T14:02:03.125Z,12.18
2023-03-29T14:04:45.223Z,12.12
2023-03-29T14:07:14.949Z,12.09
2023-03-29T14:09:46.269Z,12.11
2023-03-29T14:12:15.753Z,12.15
2023-03-29T14:14:58.400Z,12.21
2023-03-29T14:17:27.442Z,12.24
2023-03-29T14:19:58.676Z,12.23
2023-03-29T14:22:32.459Z,12.26
2023-03-29T14:25:13.597Z,12.38
2023-03-29T14:27:41.863Z,12.47
2023-03-29T14:30:29.538Z,12.55
2023-03-29T14:32:57.544Z,12.66
2023-03-29T14:35:32.382Z,12.66
2023-03-29T14:38:01.819Z,12.61
2023-03-29T14:40:30.933Z,12.54
2023-03-29T14:43:08.077Z,12.46
2023-03-29T14:45:36.473Z,12.42
2023-03-29T14:48:04.795Z,12.39
2023-03-29T14:50:34.122Z,12.35
2023-03-29T14:53:02.053Z,12.35
2023-03-29T14:55:31.053Z,12.30
2023-03-29T14:58:00.357Z,12.27
2023-03-29T15:00:30.704Z,12.23
2023-03-29T15:03:01.455Z,12.20
2023-03-29T15:05:39.287Z,12.22
2023-03-29T15:08:10.506Z,12.26
2023-03-29T15:10:38.954Z,12.30
2023-03-29T15:13:08.491Z,12.35
2023-03-29T15:15:39.141Z,12.40
2023-03-29T15:18:10.716Z,12.47
2023-03-29T15:20:41.544Z,12.55
2023-03-29T15:23:20.086Z,12.57
2023-03-29T15:25:51.907Z,12.61
2023-03-29T15:28:32.620Z,12.74
2023-03-29T15:33:37.627Z,13.01
2023-03-29T15:36:07.017Z,13.13
2023-03-29T15:38:43.816Z,13.23
2023-03-29T15:41:13.779Z,13.32
2023-03-29T15:43:44.928Z,13.40
2023-03-29T15:46:16.718Z,13.47
2023-03-29T15:48:44.473Z,13.48
2023-03-29T15:51:12.822Z,13.59
2023-03-29T15:53:41.082Z,13.76
2023-03-29T15:56:12.837Z,13.93
2023-03-29T15:58:40.489Z,14.12
2023-03-29T16:01:23.808Z,14.24
2023-03-29T16:03:51.522Z,14.25
2023-03-29T16:06:22.297Z,14.26
2023-03-29T16:08:49.944Z,14.34
2023-03-29T16:11:17.602Z,14.37
2023-03-29T16:13:45.220Z,14.30
2023-03-29T16:16:12.996Z,14.20
2023-03-29T16:18:40.647Z,14.08
2023-03-29T16:21:13.473Z,13.93
2023-03-29T16:23:41.890Z,13.80
2023-03-29T16:26:12.650Z,13.72
2023-03-29T16:28:41.249Z,13.62
2023-03-29T16:31:15.064Z,13.53
2023-03-29T16:33:42.835Z,13.49
2023-03-29T16:36:11.016Z,13.46
2023-03-29T16:38:38.786Z,13.49
2023-03-29T16:41:07.282Z,13.53
2023-03-29T16:43:35.467Z,13.55
2023-03-29T16:46:04.094Z,13.64
2023-03-29T16:48:32.080Z,13.67
2023-03-29T16:50:59.934Z,13.75
2023-03-29T16:53:28.662Z,13.82
2023-03-29T16:55:57.563Z,13.89
2023-03-29T16:58:25.126Z,13.92
2023-03-29T17:00:53.754Z,13.91
2023-03-29T17:03:21.801Z,13.89
2023-03-29T17:05:52.003Z,13.85
2023-03-29T17:08:21.442Z,13.80
2023-03-29T17:10:54.090Z,13.74
2023-03-29T17:13:26.056Z,13.73
2023-03-29T17:15:55.658Z,13.69
2023-03-29T17:18:26.461Z,13.63
2023-03-29T17:20:58.880Z,13.59
2023-03-29T17:23:26.849Z,13.55
2023-03-29T17:25:56.086Z,13.51
2023-03-29T17:28:24.303Z,13.48
2023-03-29T17:30:52.427Z,13.41
2023-03-29T17:33:26.246Z,13.38
2023-03-29T17:35:54.009Z,13.38
2023-03-29T17:38:21.855Z,13.34
2023-03-29T17:40:55.934Z,13.32
2023-03-29T17:43:23.557Z,13.30
2023-03-29T17:45:52.327Z,13.26
2023-03-29T17:48:20.260Z,13.23
2023-03-29T17:50:47.883Z,13.23
2023-03-29T17:53:15.815Z,13.23
2023-03-29T17:55:43.357Z,13.21
2023-03-29T17:58:11.153Z,13.18
2023-03-29T18:00:38.810Z,13.18
2023-03-29T18:03:06.765Z,13.18
2023-03-29T18:05:35.911Z,13.17
2023-03-29T18:08:03.942Z,13.10
2023-03-29T18:10:32.491Z,13.09
2023-03-29T18:13:00.698Z,13.06
2023-03-29T18:15:28.334Z,13.06
2023-03-29T18:17:56.274Z,13.04
2023-03-29T18:20:24.177Z,13.01
2023-03-29T18:22:51.847Z,12.98
2023-03-29T18:25:20.137Z,12.96
2023-03-29T18:27:47.779Z,12.93
2023-03-29T18:30:16.856Z,12.91
2023-03-29T18:32:44.872Z,12.88
2023-03-29T18:35:12.473Z,12.83
2023-03-29T18:37:40.141Z,12.78
2023-03-29T18:40:08.983Z,12.75
2023-03-29T18:42:36.692Z,12.71
2023-03-29T18:45:05.099Z,12.66
2023-03-29T18:47:33.200Z,12.67
2023-03-29T18:50:02.480Z,12.65
2023-03-29T18:52:30.126Z,12.60
2023-03-29T18:54:57.681Z,12.59
2023-03-29T18:57:25.370Z,12.56
2023-03-29T18:59:52.955Z,12.56
2023-03-29T19:02:20.931Z,12.55
2023-03-29T19:04:50.130Z,12.54
2023-03-29T19:07:19.240Z,12.50
2023-03-29T19:09:47.470Z,12.46
2023-03-29T19:12:15.679Z,12.45
2023-03-29T19:14:44.127Z,12.45
2023-03-29T19:17:12.327Z,12.40
2023-03-29T19:19:39.957Z,12.38
2023-03-29T19:22:07.591Z,12.39
2023-03-29T19:24:35.164Z,12.38
2023-03-29T19:27:03.134Z,12.37
2023-03-29T19:29:30.804Z,12.40
2023-03-29T19:31:58.721Z,12.39
2023-03-29T19:34:26.876Z,12.36
2023-03-29T19:36:55.300Z,12.34
2023-03-29T19:39:23.497Z,12.34
2023-03-29T19:41:51.402Z,12.30
2023-03-29T19:44:20.090Z,12.27
2023-03-29T19:46:47.673Z,12.23
2023-03-29T19:49:15.624Z,12.21
2023-03-29T19:51:43.921Z,12.19
2023-03-29T19:54:13.899Z,12.11
2023-03-29T19:56:42.998Z,12.02
2023-03-29T19:59:17.800Z,11.95
2023-03-29T20:01:51.012Z,11.86
2023-03-29T20:04:21.033Z,11.77
2023-03-29T20:06:49.162Z,11.70
2023-03-29T20:09:16.683Z,11.64
2023-03-29T20:11:46.786Z,11.60
2023-03-29T20:14:14.478Z,11.56
2023-03-29T20:16:43.341Z,11.53
2023-03-29T20:19:11.075Z,11.53
2023-03-29T20:21:38.690Z,11.50
2023-03-29T20:24:08.663Z,11.46
2023-03-29T20:26:36.610Z,11.42
2023-03-29T20:29:04.199Z,11.39
2023-03-29T20:31:31.825Z,11.34
2023-03-29T20:33:59.448Z,11.34
2023-03-29T20:36:30.654Z,11.33
2023-03-29T20:38:59.398Z,11.31
2023-03-29T20:41:27.196Z,11.29
2023-03-29T20:43:58.626Z,11.27
2023-03-29T20:46:33.817Z,11.26
2023-03-29T20:49:03.275Z,11.26
2023-03-29T20:51:32.197Z,11.28
2023-03-29T20:54:04.957Z,11.30
2023-03-29T20:56:35.535Z,11.31
2023-03-29T20:59:04.187Z,11.31
2023-03-29T21:01:35.060Z,11.29
2023-03-29T21:04:03.179Z,11.25
2023-03-29T21:06:31.690Z,11.23
2023-03-29T21:08:59.277Z,11.20
2023-03-29T21:11:28.693Z,11.15
2023-03-29T21:13:56.326Z,11.11
2023-03-29T21:16:25.329Z,11.07
2023-03-29T21:18:53.380Z,11.03
2023-03-29T21:21:22.766Z,10.98
2023-03-29T21:23:50.590Z,10.95
2023-03-29T21:26:18.470Z,10.92
2023-03-29T21:28:47.152Z,10.90
2023-03-29T21:31:14.834Z,10.87
2023-03-29T21:33:42.501Z,10.85
2023-03-29T21:36:10.109Z,10.82
2023-03-29T21:38:37.735Z,10.84
2023-03-29T21:41:07.042Z,10.89
2023-03-29T21:43:34.601Z,10.99
2023-03-29T21:46:02.183Z,11.08
2023-03-29T21:48:30.699Z,11.16
2023-03-29T21:50:58.366Z,11.24
2023-03-29T21:53:26.082Z,11.27
2023-03-29T21:55:53.866Z,11.32
2023-03-29T21:58:21.484Z,11.36
2023-03-29T22:00:49.209Z,11.38
2023-03-29T22:03:17.178Z,11.40
2023-03-29T22:05:59.199Z,11.43
2023-03-29T22:08:26.912Z,11.43
2023-03-29T22:10:56.992Z,11.44
2023-03-29T22:13:27.061Z,11.45
2023-03-29T22:16:01.282Z,11.46
2023-03-29T22:18:30.525Z,11.46
2023-03-29T22:20:58.199Z,11.48
2023-03-29T22:23:25.847Z,11.45
2023-03-29T22:25:53.457Z,11.42
2023-03-29T22:28:21.162Z,11.39
2023-03-29T22:30:48.915Z,11.37
2023-03-29T22:33:16.762Z,11.35
2023-03-29T22:35:44.377Z,11.34
2023-03-29T22:38:11.932Z,11.31
2023-03-29T22:40:40.849Z,11.28
2023-03-29T22:43:08.368Z,11.23
2023-03-29T22:45:36.469Z,11.18
2023-03-29T22:48:04.289Z,11.15
2023-03-29T22:50:31.805Z,11.10
2023-03-29T22:52:59.301Z,11.06
2023-03-29T22:55:27.288Z,10.99
2023-03-29T22:57:54.976Z,10.95
2023-03-29T23:00:22.497Z,10.92
2023-03-29T23:02:50.042Z,10.94
2023-03-29T23:05:17.644Z,10.99
2023-03-29T23:07:45.192Z,11.05
2023-03-29T23:10:12.918Z,11.08
2023-03-29T23:12:42.929Z,11.11
2023-03-29T23:15:11.509Z,11.13
2023-03-29T23:17:39.082Z,11.16
2023-03-29T23:20:07.380Z,11.14
2023-03-29T23:22:36.409Z,11.12
2023-03-29T23:25:04.282Z,11.12
2023-03-29T23:27:32.792Z,11.11
2023-03-29T23:30:01.660Z,11.06
2023-03-29T23:32:29.249Z,11.04
2023-03-29T23:34:56.902Z,10.97
2023-03-29T23:37:25.008Z,10.90
2023-03-29T23:39:52.592Z,10.86
2023-03-29T23:42:21.114Z,10.79
2023-03-29T23:44:48.654Z,10.73
2023-03-29T23:47:16.779Z,10.69
2023-03-29T23:49:45.504Z,10.69
2023-03-29T23:52:13.263Z,10.70
2023-03-29T23:54:40.921Z,10.68
2023-03-29T23:57:08.564Z,10.62
2023-03-29T23:59:37.792Z,10.59
